Time;durP1;ratioP1;P1;durP2;ratioP2;P2;SDS_P1;SDS_P2;PMS_P1;PMS_P2;Temp;Humidity;BMP_temperature;BMP_pressure;BME280_temperature;BME280_humidity;BME280_pressure;Samples;Min_cycle;Max_cycle;Signal;HPM_P1;HPM_P2
2023/08/03 00:01:56;;;;;;;23.60;19.65;;;;;;;21.06;78.83;99067.16;5092067;28;20430;-61
2023/08/03 00:04:21;;;;;;;24.65;20.70;;;;;;;21.03;78.55;99056.69;5092375;28;20032;-62
2023/08/03 00:06:47;;;;;;;26.15;20.13;;;;;;;21.03;78.63;99058.56;5091207;28;20035;-62
2023/08/03 00:09:12;;;;;;;25.33;20.00;;;;;;;20.98;78.93;99053.78;5092307;28;20060;-60
2023/08/03 00:11:38;;;;;;;24.70;20.58;;;;;;;20.94;79.09;99053.34;5093255;28;20048;-61
2023/08/03 00:14:04;;;;;;;24.00;21.33;;;;;;;20.68;79.32;99016.09;5095831;28;20357;-60
2023/08/03 00:16:29;;;;;;;23.52;20.88;;;;;;;20.93;79.31;99043.53;5076289;28;20348;-62
2023/08/03 00:18:55;;;;;;;28.75;22.20;;;;;;;20.98;78.94;99053.78;5078935;28;20024;-62
2023/08/03 00:21:20;;;;;;;27.45;23.15;;;;;;;20.94;79.03;99042.47;5095725;28;20040;-61
2023/08/03 00:23:46;;;;;;;26.88;23.00;;;;;;;20.98;78.99;99042.91;5095525;28;20028;-61
2023/08/03 00:26:11;;;;;;;30.52;23.15;;;;;;;20.98;78.99;99045.63;5095894;28;20107;-60
2023/08/03 00:28:37;;;;;;;26.70;23.60;;;;;;;20.90;79.21;99038.50;5077704;28;20039;-60
2023/08/03 00:31:02;;;;;;;27.38;23.50;;;;;;;20.88;79.01;99046.03;5060504;28;20039;-61
2023/08/03 00:33:28;;;;;;;30.92;24.20;;;;;;;20.92;79.20;99046.44;5095186;28;20032;-60
2023/08/03 00:35:53;;;;;;;27.80;24.80;;;;;;;20.76;79.74;99025.91;5094296;28;20111;-61
2023/08/03 00:38:19;;;;;;;31.55;25.80;;;;;;;20.72;79.64;99025.50;5094379;28;20021;-60
2023/08/03 00:40:45;;;;;;;27.70;23.73;;;;;;;20.79;79.84;99037.25;5095062;28;20050;-62
2023/08/03 00:43:10;;;;;;;33.08;25.27;;;;;;;20.77;79.76;99044.75;5077480;28;20039;-59
2023/08/03 00:45:36;;;;;;;28.65;22.92;;;;;;;20.74;80.13;99047.91;5095408;28;20397;-61
2023/08/03 00:48:02;;;;;;;25.63;23.02;;;;;;;20.71;80.09;99053.75;5095098;28;20024;-61
2023/08/03 00:50:27;;;;;;;25.85;22.13;;;;;;;20.70;80.40;99054.78;5060565;28;20126;-61
2023/08/03 00:52:53;;;;;;;26.33;23.13;;;;;;;20.67;80.37;99052.50;5078676;28;20028;-60
2023/08/03 00:55:18;;;;;;;27.77;22.27;;;;;;;20.69;80.43;99036.78;5077426;28;20430;-60
2023/08/03 00:57:45;;;;;;;25.73;21.00;;;;;;;20.72;80.35;99041.00;5077390;28;20024;-62
2023/08/03 01:00:11;;;;;;;24.17;21.58;;;;;;;20.68;80.05;99035.13;5095279;28;20430;-61
2023/08/03 01:02:37;;;;;;;30.27;21.45;;;;;;;20.68;80.08;99040.56;5094507;28;20043;-60
2023/08/03 01:05:02;;;;;;;23.13;19.70;;;;;;;20.70;79.85;99043.91;5094494;28;20112;-60
2023/08/03 01:07:34;;;;;;;23.75;19.92;;;;;;;20.68;79.73;99048.72;5094866;28;20394;-61
2023/08/03 01:10:00;;;;;;;22.80;20.25;;;;;;;20.55;79.81;99035.97;5077447;28;20113;-61
2023/08/03 01:12:27;;;;;;;26.27;21.60;;;;;;;20.46;79.68;99024.44;5094552;28;20031;-61
2023/08/03 01:14:52;;;;;;;22.58;20.40;;;;;;;20.62;79.78;99057.72;5094671;28;20047;-62
2023/08/03 01:17:19;;;;;;;23.52;19.42;;;;;;;20.57;80.30;99054.81;5060557;28;20024;-62
2023/08/03 01:19:45;;;;;;;24.05;19.83;;;;;;;20.55;80.39;99062.34;5078274;28;20028;-62
2023/08/03 01:22:12;;;;;;;22.88;20.38;;;;;;;20.59;79.67;99061.69;5094156;28;20032;-61
2023/08/03 01:24:38;;;;;;;24.60;19.42;;;;;;;20.35;79.77;99027.81;5094631;28;20423;-61
2023/08/03 01:27:05;;;;;;;26.35;20.50;;;;;;;20.41;80.09;99035.13;5082801;28;20039;-62
2023/08/03 01:29:30;;;;;;;25.30;19.70;;;;;;;20.56;79.86;99058.56;5093736;28;20402;-60
2023/08/03 01:31:57;;;;;;;23.88;19.70;;;;;;;20.54;79.64;99052.50;5094251;28;20123;-59
2023/08/03 01:34:24;;;;;;;23.05;19.27;;;;;;;20.48;79.55;99046.00;5092798;28;20362;-61
2023/08/03 01:36:52;;;;;;;27.52;19.67;;;;;;;20.54;79.53;99060.66;5094478;28;20110;-61
2023/08/03 01:39:17;;;;;;;24.40;19.55;;;;;;;20.50;79.50;99050.19;5094876;28;20426;-61
2023/08/03 01:41:43;;;;;;;21.00;18.80;;;;;;;20.55;79.24;99056.91;5093203;28;20085;-60
2023/08/03 01:44:26;;;;;;;22.92;19.55;;;;;;;20.60;79.08;99065.25;5094226;28;20039;-61
2023/08/03 01:46:54;;;;;;;25.80;20.52;;;;;;;20.54;79.25;99066.09;5093416;28;20040;-61
2023/08/03 01:49:21;;;;;;;24.25;19.15;;;;;;;20.51;79.08;99068.19;5093950;28;20067;-65
2023/08/03 01:51:46;;;;;;;22.08;19.50;;;;;;;20.44;78.96;99045.56;5094109;28;20134;-61
2023/08/03 01:54:12;;;;;;;23.27;19.63;;;;;;;20.46;79.03;99053.53;5076106;28;20114;-61
2023/08/03 01:56:38;;;;;;;20.85;18.70;;;;;;;20.49;79.32;99067.53;5094158;28;20401;-61
2023/08/03 01:59:04;;;;;;;23.13;20.60;;;;;;;20.53;78.52;99073.41;5093799;28;20410;-61
2023/08/03 02:01:30;;;;;;;25.88;20.00;;;;;;;20.55;78.26;99079.47;5093695;28;20040;-60
2023/08/03 02:03:55;;;;;;;21.83;18.92;;;;;;;20.57;78.20;99074.66;5093634;28;20369;-60
2023/08/03 02:06:21;;;;;;;23.80;19.25;;;;;;;20.57;78.32;99077.38;5093971;28;20457;-61
2023/08/03 02:08:47;;;;;;;21.60;19.05;;;;;;;20.50;77.97;99055.63;5093435;28;20112;-62
2023/08/03 02:11:12;;;;;;;25.48;19.85;;;;;;;20.60;78.20;99087.84;5093652;28;20036;-60
2023/08/03 02:13:41;;;;;;;34.65;20.13;;;;;;;20.60;77.71;99081.56;5093309;28;20039;-61
2023/08/03 02:16:10;;;;;;;25.02;19.70;;;;;;;20.65;77.77;99098.94;5093249;28;20043;-60
2023/08/03 02:18:37;;;;;;;22.55;19.30;;;;;;;20.68;78.03;99097.69;5093071;28;20063;-61
2023/08/03 02:21:03;;;;;;;24.70;20.17;;;;;;;20.66;77.64;99097.06;5092981;28;20379;-60
2023/08/03 02:23:29;;;;;;;21.52;19.23;;;;;;;20.70;77.25;99086.59;5093040;28;20454;-60
2023/08/03 02:25:55;;;;;;;24.38;19.83;;;;;;;20.81;77.13;99093.34;5075725;28;20079;-60
2023/08/03 02:28:20;;;;;;;22.40;18.85;;;;;;;20.68;76.66;99073.19;5092907;28;20085;-61
2023/08/03 02:30:46;;;;;;;20.85;18.75;;;;;;;20.86;75.70;99090.81;5075623;28;20028;-61
2023/08/03 02:33:11;;;;;;;20.17;18.08;;;;;;;20.93;75.17;99088.94;5093075;28;20042;-60
2023/08/03 02:35:39;;;;;;;20.40;18.30;;;;;;;21.00;74.75;99097.09;5093043;28;20131;-61
2023/08/03 02:38:08;;;;;;;20.02;16.55;;;;;;;20.92;74.54;99076.38;5092845;28;20039;-60
2023/08/03 02:40:34;;;;;;;23.00;17.80;;;;;;;21.12;74.21;99089.13;5075401;28;20029;-61
2023/08/03 02:42:59;;;;;;;22.67;16.83;;;;;;;21.20;73.63;99097.91;5092098;28;20032;-61
2023/08/03 02:45:25;;;;;;;18.90;16.90;;;;;;;21.19;73.61;99095.38;5093052;28;20032;-61
2023/08/03 02:47:51;;;;;;;19.85;16.45;;;;;;;21.25;73.45;99093.72;5093499;28;20063;-61
2023/08/03 02:50:17;;;;;;;21.90;16.55;;;;;;;21.28;72.91;99094.13;5074853;28;20063;-61
2023/08/03 02:52:43;;;;;;;21.63;15.48;;;;;;;21.42;72.32;99100.38;5092791;28;20561;-61
2023/08/03 02:55:08;;;;;;;19.58;15.52;;;;;;;21.50;71.31;99097.44;5092835;28;20024;-61
2023/08/03 02:57:34;;;;;;;18.63;14.38;;;;;;;21.65;70.54;99110.00;5092441;28;20027;-60
2023/08/03 02:59:59;;;;;;;18.20;14.30;;;;;;;21.88;69.79;99100.50;5092594;28;20031;-61
2023/08/03 03:02:25;;;;;;;16.52;13.77;;;;;;;22.16;68.41;99099.31;5092804;28;20028;-61
2023/08/03 03:04:50;;;;;;;14.27;12.77;;;;;;;22.40;67.46;99103.13;5093371;28;20466;-62
2023/08/03 03:10:47;;;;;;;14.27;12.77;;;;;;;23.03;64.71;99103.34;5074842;28;20466;-61
2023/08/03 03:13:12;;;;;;;20.60;12.50;;;;;;;23.19;64.18;99094.56;5093089;28;20046;-61
2023/08/03 03:16:25;;;;;;;14.05;11.95;;;;;;;23.57;63.98;99113.78;5092759;28;20036;-61
2023/08/03 03:18:51;;;;;;;13.65;12.27;;;;;;;23.70;62.50;99113.63;5092702;28;20039;-61
2023/08/03 03:22:12;;;;;;;16.95;11.80;;;;;;;24.00;62.43;99112.88;5092324;28;20100;-60
2023/08/03 03:24:37;;;;;;;12.43;10.82;;;;;;;24.06;61.24;99111.13;5092729;28;20089;-62
2023/08/03 03:27:03;;;;;;;12.60;11.07;;;;;;;23.98;60.56;99087.63;5092468;28;20029;-61
2023/08/03 03:29:29;;;;;;;14.02;11.57;;;;;;;24.18;60.43;99101.09;5080076;28;20079;-61
2023/08/03 03:31:55;;;;;;;16.77;11.68;;;;;;;24.20;60.42;99100.84;5092718;28;20085;-67
2023/08/03 03:34:20;;;;;;;12.93;11.00;;;;;;;24.09;59.83;99080.56;5092130;28;20024;-61
2023/08/03 03:36:46;;;;;;;16.55;12.57;;;;;;;24.27;59.69;99103.47;5092402;28;20055;-61
2023/08/03 03:39:11;;;;;;;14.70;11.90;;;;;;;24.17;59.73;99072.06;5092296;28;20024;-60
2023/08/03 03:41:37;;;;;;;15.73;11.40;;;;;;;24.31;59.63;99096.47;5092538;28;20451;-61
2023/08/03 03:44:03;;;;;;;13.27;11.30;;;;;;;24.42;59.89;99095.69;5090073;28;20062;-61
2023/08/03 03:46:28;;;;;;;11.57;10.38;;;;;;;24.96;57.65;99092.13;5094878;28;20039;-61
2023/08/03 03:48:54;;;;;;;12.13;10.15;;;;;;;25.84;54.93;99096.88;5095174;28;20024;-62
2023/08/03 03:51:21;;;;;;;13.85;9.65;;;;;;;26.34;53.20;99091.81;5095584;28;20369;-61
2023/08/03 03:53:46;;;;;;;15.18;10.00;;;;;;;26.46;52.45;99092.56;5096024;28;20115;-62
2023/08/03 03:56:12;;;;;;;12.38;10.05;;;;;;;26.73;51.79;99091.94;5096238;28;20119;-60
2023/08/03 03:58:37;;;;;;;14.02;9.65;;;;;;;27.52;49.81;99092.09;5095934;28;20028;-59
2023/08/03 04:01:03;;;;;;;11.48;9.07;;;;;;;28.41;47.57;99067.28;5096022;28;20062;-60
2023/08/03 04:03:28;;;;;;;9.93;8.90;;;;;;;29.71;44.90;99104.09;5095170;28;20028;-61
2023/08/03 04:05:54;;;;;;;11.02;8.75;;;;;;;30.70;41.91;99088.63;5096223;28;20024;-61
2023/08/03 04:08:20;;;;;;;14.75;8.35;;;;;;;31.78;39.89;99107.03;5067836;28;20048;-61
2023/08/03 04:10:45;;;;;;;9.45;8.23;;;;;;;32.40;38.31;99100.34;5057880;28;20117;-62
2023/08/03 04:13:11;;;;;;;10.43;8.27;;;;;;;32.53;37.98;99099.72;5075378;28;20055;-60
2023/08/03 04:15:36;;;;;;;12.60;7.97;;;;;;;32.07;38.80;99103.56;5069528;28;20453;-62
2023/08/03 04:18:02;;;;;;;10.18;8.18;;;;;;;31.41;39.69;99119.28;5095313;28;20071;-62
2023/08/03 04:20:27;;;;;;;9.40;8.35;;;;;;;30.33;40.80;99060.13;5095646;28;20028;-66
2023/08/03 04:22:53;;;;;;;8.95;8.05;;;;;;;30.02;42.08;99104.22;5096271;28;20035;-64
2023/08/03 04:25:19;;;;;;;12.07;8.38;;;;;;;30.38;41.63;99107.06;5094568;28;20426;-61
2023/08/03 04:27:46;;;;;;;10.90;7.65;;;;;;;31.61;39.14;99094.34;5095817;28;20028;-60
2023/08/03 04:30:13;;;;;;;8.57;7.68;;;;;;;33.12;36.02;99096.22;5094939;28;20107;-61
2023/08/03 04:32:40;;;;;;;12.73;7.43;;;;;;;34.47;33.67;99107.34;5095177;28;20058;-62
2023/08/03 04:35:06;;;;;;;8.95;7.63;;;;;;;35.52;31.74;99101.75;5094508;28;20069;-61
2023/08/03 04:37:32;;;;;;;10.00;7.47;;;;;;;36.39;30.53;99097.44;5095120;28;20363;-64
2023/08/03 04:39:57;;;;;;;10.50;7.90;;;;;;;37.12;29.11;99100.13;5092577;28;20028;-62
2023/08/03 04:42:23;;;;;;;9.50;6.85;;;;;;;37.88;27.96;99097.47;5094665;28;20028;-62
2023/08/03 04:44:52;;;;;;;10.98;7.55;;;;;;;38.43;26.85;99093.28;5095268;28;20028;-63
2023/08/03 04:47:18;;;;;;;9.63;7.50;;;;;;;39.03;26.01;99093.56;5094926;28;20024;-62
2023/08/03 04:49:44;;;;;;;11.18;6.53;;;;;;;39.82;24.70;99100.91;5094254;28;20032;-62
2023/08/03 04:52:09;;;;;;;9.02;6.35;;;;;;;40.32;24.31;99090.03;5095173;28;20107;-63
2023/08/03 04:54:34;;;;;;;8.63;6.25;;;;;;;40.77;23.66;99101.69;5094464;28;20131;-62
2023/08/03 04:57:00;;;;;;;8.23;6.05;;;;;;;41.42;22.37;99093.56;5094417;28;20024;-63
2023/08/03 04:59:26;;;;;;;12.68;6.97;;;;;;;41.69;22.17;99087.59;5095652;28;20040;-62
2023/08/03 05:01:51;;;;;;;12.60;6.90;;;;;;;41.59;22.19;99091.69;5094554;28;20027;-63
2023/08/03 05:04:17;;;;;;;11.88;7.20;;;;;;;41.74;21.80;99090.19;5094829;28;20032;-62
2023/08/03 05:06:42;;;;;;;8.25;7.15;;;;;;;42.12;21.58;99088.16;5094682;28;20060;-63
2023/08/03 05:09:08;;;;;;;10.15;7.07;;;;;;;42.29;21.71;99087.03;5094469;28;20086;-63
2023/08/03 05:11:33;;;;;;;9.52;7.15;;;;;;;42.61;21.28;99090.00;5094901;28;20453;-63
2023/08/03 05:13:59;;;;;;;13.02;8.07;;;;;;;42.83;20.35;99054.00;5094756;28;20024;-62
2023/08/03 05:16:26;;;;;;;10.70;6.82;;;;;;;43.78;19.54;99086.22;5094409;28;20454;-63
2023/08/03 05:18:52;;;;;;;10.63;7.15;;;;;;;44.48;18.98;99082.91;5074721;28;20029;-63
2023/08/03 05:21:18;;;;;;;10.10;6.82;;;;;;;45.20;18.30;99083.47;5074480;28;20033;-63
2023/08/03 05:23:45;;;;;;;9.10;6.80;;;;;;;45.63;17.81;99083.38;5074076;28;20181;-62
2023/08/03 05:26:11;;;;;;;8.48;6.45;;;;;;;45.81;17.43;99061.84;5091094;28;20032;-62
2023/08/03 05:28:36;;;;;;;8.10;6.28;;;;;;;46.14;17.48;99067.97;5094432;28;20044;-63
2023/08/03 05:31:02;;;;;;;12.60;7.43;;;;;;;45.96;17.09;99011.16;5093499;28;20443;-66
2023/08/03 05:33:27;;;;;;;8.95;6.60;;;;;;;46.82;16.39;99061.53;5094180;28;20096;-62
2023/08/03 05:35:53;;;;;;;6.90;6.00;;;;;;;46.99;16.43;99069.38;5094047;28;20032;-62
2023/08/03 05:38:19;;;;;;;10.43;6.10;;;;;;;47.56;15.47;99039.91;5094288;28;20036;-64
2023/08/03 05:40:44;;;;;;;7.65;6.90;;;;;;;47.90;15.04;99067.28;5077702;28;20059;-66
2023/08/03 05:43:12;;;;;;;7.53;6.80;;;;;;;48.16;14.85;99056.06;5093701;28;20036;-65
2023/08/03 05:45:41;;;;;;;10.63;6.55;;;;;;;48.67;14.38;99062.75;5093408;28;20043;-67
2023/08/03 05:48:20;;;;;;;7.60;6.35;;;;;;;49.66;13.98;99047.34;5093037;28;20035;-65
2023/08/03 05:50:50;;;;;;;10.38;6.68;;;;;;;49.89;13.84;99066.84;5091686;28;20031;-66
2023/08/03 05:53:17;;;;;;;10.93;6.63;;;;;;;49.83;13.65;99068.47;5093551;28;20031;-68
2023/08/03 05:55:44;;;;;;;8.10;6.15;;;;;;;49.53;14.04;99067.72;5092737;28;20028;-65
2023/08/03 05:58:11;;;;;;;7.57;5.85;;;;;;;49.25;14.04;99063.66;5093721;28;20028;-65
2023/08/03 06:00:39;;;;;;;7.95;6.20;;;;;;;49.55;13.90;99068.09;5093443;28;20043;-64
2023/08/03 06:03:04;;;;;;;7.47;5.60;;;;;;;50.30;13.14;99056.94;5079018;28;20129;-65
2023/08/03 06:05:49;;;;;;;8.20;5.82;;;;;;;51.66;12.48;99072.69;5093327;28;20119;-65
2023/08/03 06:08:20;;;;;;;8.68;6.35;;;;;;;51.09;12.72;99066.22;5092198;28;20051;-68
2023/08/03 06:10:54;;;;;;;7.90;6.68;;;;;;;50.88;12.91;99079.38;5092274;28;20060;-67
2023/08/03 06:13:27;;;;;;;7.70;6.88;;;;;;;51.26;12.51;99075.88;5092522;28;20043;-67
2023/08/03 06:15:53;;;;;;;10.70;7.50;;;;;;;51.25;12.39;99069.34;5093208;28;20071;-65
2023/08/03 06:18:20;;;;;;;10.82;8.75;;;;;;;50.30;12.87;99068.31;5093084;28;20039;-66
2023/08/03 06:20:48;;;;;;;11.98;7.40;;;;;;;50.21;13.07;99071.59;5092926;28;20032;-66
2023/08/03 06:23:25;;;;;;;12.73;7.18;;;;;;;50.94;12.40;99072.06;5092774;28;20491;-69
2023/08/03 06:25:53;;;;;;;10.32;6.88;;;;;;;51.57;12.18;99072.31;5089591;28;20092;-66
2023/08/03 06:28:20;;;;;;;12.93;6.70;;;;;;;52.09;12.15;99092.19;5092715;28;20494;-68
2023/08/03 06:30:47;;;;;;;11.90;6.90;;;;;;;52.19;11.78;99086.78;5092827;28;20027;-63
2023/08/03 06:33:15;;;;;;;11.77;6.82;;;;;;;52.21;11.80;99070.81;5091366;28;20031;-63
2023/08/03 06:35:42;;;;;;;9.50;7.15;;;;;;;52.39;11.55;99078.38;5091703;28;20016;-61
2023/08/03 06:38:12;;;;;;;12.15;7.20;;;;;;;52.64;11.28;99069.44;5091909;28;20044;-60
2023/08/03 06:40:40;;;;;;;8.38;6.30;;;;;;;52.94;11.04;99075.56;5092280;28;20032;-61
2023/08/03 06:43:06;;;;;;;9.68;6.13;;;;;;;52.91;10.42;99070.69;5092029;28;20043;-67
2023/08/03 06:45:33;;;;;;;10.77;6.78;;;;;;;53.20;10.71;99070.25;5091899;28;20482;-64
2023/08/03 06:48:00;;;;;;;11.80;6.93;;;;;;;53.40;10.46;99070.31;5092403;28;20043;-62
2023/08/03 06:50:30;;;;;;;9.43;6.80;;;;;;;54.12;10.60;99073.06;5091819;28;20032;-62
2023/08/03 06:52:57;;;;;;;8.38;6.70;;;;;;;54.66;9.97;99080.47;5090723;28;20032;-64
2023/08/03 06:55:23;;;;;;;11.90;6.95;;;;;;;55.11;9.60;99064.69;5091190;28;20020;-63
2023/08/03 06:57:48;;;;;;;11.27;6.80;;;;;;;55.22;9.25;99070.13;5089629;28;20085;-62
2023/08/03 07:00:15;;;;;;;11.18;7.05;;;;;;;54.95;9.14;99071.19;5090384;28;20024;-62
2023/08/03 07:02:41;;;;;;;15.23;7.00;;;;;;;55.00;9.69;99070.66;5090453;28;20035;-61
2023/08/03 07:05:07;;;;;;;12.23;7.40;;;;;;;55.15;9.50;99065.38;5073490;28;20085;-64
2023/08/03 07:07:33;;;;;;;11.50;6.50;;;;;;;54.91;9.14;99065.53;5071156;28;20072;-62
2023/08/03 07:10:01;;;;;;;10.00;6.40;;;;;;;54.72;9.25;99063.56;5071572;28;20036;-61
2023/08/03 07:12:30;;;;;;;8.38;7.00;;;;;;;54.77;9.68;99063.06;5071274;28;20068;-61
2023/08/03 07:14:56;;;;;;;8.43;6.25;;;;;;;54.69;9.77;99055.84;5071597;28;20048;-62
2023/08/03 07:17:24;;;;;;;8.90;5.93;;;;;;;55.03;9.24;99074.72;5071846;28;20432;-63
2023/08/03 07:19:51;;;;;;;9.18;6.65;;;;;;;55.63;9.23;99070.69;5071655;28;20289;-62
2023/08/03 07:22:20;;;;;;;9.77;7.13;;;;;;;56.08;8.82;99041.13;5072148;28;20024;-64
2023/08/03 07:24:46;;;;;;;9.02;6.88;;;;;;;56.46;8.88;99061.78;5059312;28;20024;-65
2023/08/03 07:27:12;;;;;;;8.57;7.50;;;;;;;56.50;8.58;99066.13;5070356;28;20036;-68
2023/08/03 07:29:37;;;;;;;9.55;7.18;;;;;;;55.90;9.35;99060.94;5071300;28;20036;-69
2023/08/03 07:32:04;;;;;;;9.90;6.45;;;;;;;53.78;9.97;99061.47;5071045;28;20032;-69
2023/08/03 07:34:29;;;;;;;11.93;6.25;;;;;;;51.54;11.94;99054.03;5071587;28;20453;-69
2023/08/03 07:36:56;;;;;;;12.40;6.05;;;;;;;49.26;13.57;99042.53;5071089;28;20032;-63
2023/08/03 07:39:22;;;;;;;11.45;5.45;;;;;;;48.44;14.31;99044.03;5070714;28;20040;-64
2023/08/03 07:41:48;;;;;;;6.32;5.35;;;;;;;50.01;13.12;99047.69;5071835;28;20036;-64
2023/08/03 07:44:17;;;;;;;12.35;6.22;;;;;;;51.43;12.01;99050.47;5071687;28;20033;-64
2023/08/03 07:46:44;;;;;;;7.32;5.43;;;;;;;52.87;11.06;99039.31;5071852;28;20434;-64
2023/08/03 07:49:10;;;;;;;10.07;6.88;;;;;;;53.84;10.33;99030.25;5071174;28;20032;-64
2023/08/03 07:51:36;;;;;;;7.80;5.95;;;;;;;53.95;10.35;99041.47;5072112;28;20417;-62
2023/08/03 07:54:02;;;;;;;12.32;6.78;;;;;;;54.03;10.44;99030.72;5071197;28;20024;-63
2023/08/03 07:56:28;;;;;;;10.13;7.05;;;;;;;53.86;10.52;99042.06;5071778;28;20036;-62
2023/08/03 07:58:54;;;;;;;7.93;6.15;;;;;;;53.77;10.47;99033.25;5070210;28;20025;-62
2023/08/03 08:01:20;;;;;;;13.43;7.07;;;;;;;53.96;10.62;99040.22;5071677;28;20029;-62
2023/08/03 08:03:46;;;;;;;11.10;6.50;;;;;;;53.69;10.63;99031.78;5071221;28;20107;-62
2023/08/03 08:06:16;;;;;;;12.93;6.78;;;;;;;53.97;10.88;99050.41;5070828;28;20116;-68
2023/08/03 08:08:43;;;;;;;9.02;6.10;;;;;;;53.04;10.99;99039.47;5081756;28;20048;-64
2023/08/03 08:11:11;;;;;;;7.85;6.32;;;;;;;52.14;11.81;99035.88;5071651;28;20035;-70
2023/08/03 08:13:36;;;;;;;10.38;6.32;;;;;;;50.91;12.43;99038.69;5077875;28;20062;-68
2023/08/03 08:16:04;;;;;;;12.23;6.05;;;;;;;50.30;12.85;99042.69;5090939;28;20032;-69
2023/08/03 08:18:31;;;;;;;10.20;5.60;;;;;;;48.51;14.39;99031.88;5090672;28;20036;-67
2023/08/03 08:21:01;;;;;;;8.90;5.15;;;;;;;46.51;16.30;99029.63;5090387;28;20043;-64
2023/08/03 08:23:27;;;;;;;6.53;4.75;;;;;;;44.00;18.67;99033.94;5077371;28;20040;-64
2023/08/03 08:25:53;;;;;;;10.60;4.93;;;;;;;41.80;21.18;99029.75;5071012;28;20036;-63
2023/08/03 08:28:19;;;;;;;10.70;5.25;;;;;;;40.19;23.66;99030.25;5073605;28;20032;-64
2023/08/03 08:30:45;;;;;;;12.82;5.72;;;;;;;39.05;24.71;99024.09;5078981;28;20098;-61
2023/08/03 08:33:13;;;;;;;10.25;5.30;;;;;;;38.02;26.39;99030.31;5090993;28;20112;-62
2023/08/03 08:35:38;;;;;;;10.25;4.80;;;;;;;37.22;27.05;99018.09;5095030;28;20104;-61
2023/08/03 08:38:07;;;;;;;15.88;5.30;;;;;;;36.86;27.81;99027.41;5093838;28;20024;-63
2023/08/03 08:40:36;;;;;;;10.02;4.97;;;;;;;36.48;28.20;99034.19;5093691;28;20036;-61
2023/08/03 08:43:02;;;;;;;11.00;5.00;;;;;;;36.08;28.30;99026.50;5094567;28;20032;-60
2023/08/03 08:45:32;;;;;;;6.40;4.65;;;;;;;35.99;28.39;99022.81;5094721;28;20059;-60
2023/08/03 08:47:58;;;;;;;10.48;5.18;;;;;;;35.61;28.88;99024.72;5094439;28;20435;-61
2023/08/03 08:50:23;;;;;;;6.35;4.47;;;;;;;35.50;29.16;99031.63;5094885;28;20035;-62
2023/08/03 08:52:51;;;;;;;9.90;4.40;;;;;;;35.39;29.40;99027.41;5093906;28;20028;-62
2023/08/03 08:55:27;;;;;;;8.88;4.72;;;;;;;35.56;29.17;99032.34;5094351;28;20066;-64
2023/08/03 08:57:53;;;;;;;8.18;5.22;;;;;;;35.56;29.31;99022.06;5094132;28;20121;-65
2023/08/03 09:00:20;;;;;;;8.40;5.35;;;;;;;35.48;29.34;99020.78;5094420;28;20031;-63
2023/08/03 09:02:47;;;;;;;5.82;4.43;;;;;;;35.28;29.84;99055.44;5093279;28;20027;-63
2023/08/03 09:05:14;;;;;;;12.38;5.35;;;;;;;35.05;30.17;99044.19;5059818;28;20036;-64
2023/08/03 09:07:40;;;;;;;10.73;4.97;;;;;;;35.02;30.24;99024.50;5094416;28;20512;-62
2023/08/03 09:10:06;;;;;;;5.70;4.40;;;;;;;35.16;29.95;99027.28;5084155;28;20028;-62
2023/08/03 09:12:32;;;;;;;9.65;5.50;;;;;;;35.13;29.95;99025.13;5078646;28;20036;-63
2023/08/03 09:14:58;;;;;;;8.00;5.07;;;;;;;34.73;30.87;99023.59;5093621;28;20086;-68
2023/08/03 09:17:25;;;;;;;9.40;5.10;;;;;;;34.45;31.08;99040.16;5093470;28;20074;-64
2023/08/03 09:19:52;;;;;;;6.13;4.85;;;;;;;34.18;31.25;99001.97;5093136;28;20044;-66
2023/08/03 09:22:19;;;;;;;6.95;4.80;;;;;;;34.37;30.72;99038.06;5093827;28;20031;-65
2023/08/03 09:24:47;;;;;;;5.65;4.47;;;;;;;34.38;30.74;99017.47;5093442;28;20169;-65
2023/08/03 09:27:17;;;;;;;4.72;4.18;;;;;;;34.74;30.03;99029.97;5093840;28;20072;-67
2023/08/03 09:29:43;;;;;;;11.93;4.88;;;;;;;34.82;30.32;99015.38;5093860;28;20343;-64
2023/08/03 09:32:08;;;;;;;9.27;4.95;;;;;;;34.96;30.16;99026.50;5093914;28;20084;-65
2023/08/03 09:34:42;;;;;;;10.25;5.60;;;;;;;34.87;30.51;99029.19;5093435;28;20080;-64
2023/08/03 09:37:09;;;;;;;5.00;4.50;;;;;;;34.74;30.22;99025.25;5094228;28;20031;-65
2023/08/03 09:39:37;;;;;;;7.60;4.50;;;;;;;34.69;30.75;99039.22;5093490;28;20044;-64
2023/08/03 09:42:05;;;;;;;4.82;4.43;;;;;;;34.69;30.85;99013.41;5093771;28;20024;-63
2023/08/03 09:44:34;;;;;;;5.78;4.57;;;;;;;34.58;30.51;99032.19;5076046;28;20036;-64
2023/08/03 09:47:01;;;;;;;7.57;4.57;;;;;;;34.33;31.04;99021.16;5093282;28;20036;-64
2023/08/03 09:49:27;;;;;;;7.07;4.93;;;;;;;34.17;31.49;99017.00;5093244;28;20446;-64
2023/08/03 09:51:57;;;;;;;7.53;4.95;;;;;;;34.10;31.85;99022.91;5092767;28;20682;-65
2023/08/03 09:54:56;;;;;;;8.25;4.95;;;;;;;34.35;31.09;99018.09;5092419;28;20105;-65
2023/08/03 09:57:29;;;;;;;5.38;4.53;;;;;;;34.21;31.64;99024.41;5093307;28;20024;-64
2023/08/03 10:00:03;;;;;;;7.40;4.90;;;;;;;34.23;31.83;99021.34;5080085;28;20031;-61
2023/08/03 10:02:32;;;;;;;;;;;;;;;34.82;30.00;99031.25;5075649;28;20036;-67
2023/08/03 10:05:02;;;;;;;7.95;4.97;;;;;;;34.57;31.08;99019.44;5092837;28;19916;-63
2023/08/03 10:07:35;;;;;;;8.65;5.00;;;;;;;34.29;31.39;98992.34;5088115;28;20067;-65
2023/08/03 10:10:03;;;;;;;9.98;5.75;;;;;;;34.51;30.95;99015.09;5064526;28;20090;-63
2023/08/03 10:12:46;;;;;;;7.13;4.70;;;;;;;34.72;29.83;99026.69;5073501;28;20028;-64
2023/08/03 10:15:14;;;;;;;9.15;4.70;;;;;;;34.57;30.49;99014.69;5055283;28;20035;-64
2023/08/03 10:17:41;;;;;;;5.18;4.68;;;;;;;34.56;30.09;99018.59;5084000;28;20071;-62
2023/08/03 10:20:09;;;;;;;5.75;4.40;;;;;;;34.60;30.17;99030.75;5063169;28;20050;-65
2023/08/03 10:22:35;;;;;;;7.55;4.75;;;;;;;34.51;30.11;99021.47;5092732;28;20032;-66
2023/08/03 10:25:29;;;;;;;5.15;4.35;;;;;;;34.66;30.13;99034.28;5086150;28;20150;-66
2023/08/03 10:28:13;;;;;;;8.70;4.88;;;;;;;34.57;30.50;99025.81;5057639;28;20048;-65
2023/08/03 10:31:15;;;;;;;7.50;4.93;;;;;;;34.40;30.08;99015.22;5072787;28;20032;-64
2023/08/03 10:33:47;;;;;;;6.90;4.72;;;;;;;33.98;30.35;99022.53;5037332;28;20073;-68
2023/08/03 10:36:28;;;;;;;8.60;4.55;;;;;;;33.75;30.83;99023.09;5059575;28;20040;-65
2023/08/03 10:38:57;;;;;;;9.35;4.72;;;;;;;33.50;31.56;99014.00;5067142;28;20566;-65
2023/08/03 10:41:27;;;;;;;5.60;5.00;;;;;;;33.74;31.01;99020.59;5090193;28;20413;-64
2023/08/03 10:44:05;;;;;;;9.52;5.78;;;;;;;34.14;30.31;99012.84;5073555;28;20374;-65
2023/08/03 10:46:47;;;;;;;7.85;4.90;;;;;;;34.15;29.75;99006.16;5091161;28;20119;-68
2023/08/03 10:49:19;;;;;;;10.02;5.55;;;;;;;34.43;29.88;99009.06;5089653;28;20654;-62
2023/08/03 10:51:46;;;;;;;8.20;5.35;;;;;;;34.22;30.42;99023.28;5090595;28;20097;-67
2023/08/03 10:54:12;;;;;;;7.13;4.55;;;;;;;33.97;31.05;99018.09;5090481;28;20027;-70
2023/08/03 10:56:37;;;;;;;6.72;4.78;;;;;;;33.82;31.49;99014.41;5055306;28;20036;-64
2023/08/03 10:59:04;;;;;;;7.03;5.13;;;;;;;33.77;31.47;99022.81;5085853;28;20051;-64
2023/08/03 11:01:30;;;;;;;5.30;4.80;;;;;;;33.72;31.27;99028.41;5091873;28;20035;-65
2023/08/03 11:03:56;;;;;;;5.43;4.82;;;;;;;33.60;31.47;99024.13;5092759;28;20028;-64
2023/08/03 11:06:24;;;;;;;5.93;5.30;;;;;;;33.46;31.74;99012.09;5091778;28;20027;-65
2023/08/03 11:08:50;;;;;;;6.28;4.93;;;;;;;33.31;32.46;99007.53;5091694;28;20459;-64
2023/08/03 11:11:21;;;;;;;7.72;5.10;;;;;;;33.26;31.96;99007.59;5077897;28;20474;-64
2023/08/03 11:13:47;;;;;;;7.18;4.95;;;;;;;33.22;31.50;98999.88;5075076;28;20040;-65
2023/08/03 11:16:20;;;;;;;8.52;5.13;;;;;;;33.36;31.78;98999.13;5075177;28;20039;-65
2023/08/03 11:18:46;;;;;;;6.65;4.72;;;;;;;33.15;31.89;98970.84;5090636;28;20040;-69
2023/08/03 11:21:15;;;;;;;8.20;5.40;;;;;;;33.19;32.00;98966.34;5092009;28;20107;-64
2023/08/03 11:23:41;;;;;;;5.53;5.03;;;;;;;33.22;32.34;99005.41;5074788;28;20051;-70
2023/08/03 11:26:10;;;;;;;8.07;4.90;;;;;;;33.20;32.08;99004.06;5092048;28;20245;-63
2023/08/03 11:28:40;;;;;;;8.38;4.50;;;;;;;33.12;32.45;99011.06;5057476;28;20154;-64
2023/08/03 11:31:26;;;;;;;6.60;4.90;;;;;;;33.11;32.30;99003.06;5056254;28;20066;-64
2023/08/03 11:33:54;;;;;;;6.18;5.13;;;;;;;32.69;33.33;99008.97;5082649;28;20097;-67